createdAt,value
2023-04-15T00:01:39.572Z,4.82
2023-04-15T00:04:45.588Z,3.15
2023-04-15T00:07:49.993Z,3.55
2023-04-15T00:10:56.917Z,2.65
2023-04-15T00:14:00.982Z,2.75
2023-04-15T00:17:05.254Z,3.78
2023-04-15T00:20:13.587Z,3.83
2023-04-15T00:23:19.351Z,3.97
2023-04-15T00:26:23.373Z,6.53
2023-04-15T00:29:27.080Z,3.20
2023-04-15T00:32:31.393Z,2.90
2023-04-15T00:35:37.453Z,3.22
2023-04-15T00:38:45.258Z,3.08
2023-04-15T00:41:50.035Z,4.72
2023-04-15T00:44:54.125Z,4.75
2023-04-15T00:48:01.935Z,4.05
2023-04-15T00:51:07.671Z,3.20
2023-04-15T00:54:11.586Z,3.42
2023-04-15T00:57:15.498Z,3.05
2023-04-15T01:00:20.742Z,3.78
2023-04-15T01:03:24.658Z,4.38
2023-04-15T01:06:30.300Z,4.45
2023-04-15T01:09:34.618Z,4.05
2023-04-15T01:12:39.608Z,4.20
2023-04-15T01:15:44.863Z,4.18
2023-04-15T01:18:50.637Z,4.30
2023-04-15T01:21:57.825Z,5.18
2023-04-15T01:25:04.811Z,3.80
2023-04-15T01:28:12.152Z,5.65
2023-04-15T01:31:16.709Z,4.38
2023-04-15T01:34:21.796Z,5.57
2023-04-15T01:37:25.984Z,8.40
2023-04-15T01:40:30.099Z,6.70
2023-04-15T01:43:38.827Z,7.00
2023-04-15T01:46:42.572Z,6.82
2023-04-15T01:49:46.550Z,6.45
2023-04-15T01:52:51.164Z,7.88
2023-04-15T01:55:56.267Z,9.13
2023-04-15T01:59:02.434Z,7.55
2023-04-15T02:02:06.429Z,8.50
2023-04-15T02:05:11.207Z,8.48
2023-04-15T02:08:15.189Z,9.27
2023-04-15T02:11:19.866Z,10.63
2023-04-15T02:14:27.038Z,11.05
2023-04-15T02:17:31.713Z,9.77
2023-04-15T02:20:36.560Z,13.88
2023-04-15T02:23:44.053Z,11.25
2023-04-15T02:26:52.221Z,10.25
2023-04-15T02:29:59.205Z,10.25
2023-04-15T02:33:03.814Z,11.05
2023-04-15T02:36:09.798Z,10.57
2023-04-15T02:39:14.765Z,10.48
2023-04-15T02:42:19.206Z,10.10
2023-04-15T02:45:27.979Z,9.70
2023-04-15T02:48:32.524Z,12.73
2023-04-15T02:51:39.707Z,12.82
2023-04-15T02:54:45.019Z,9.98
2023-04-15T02:57:49.530Z,12.23
2023-04-15T03:00:54.774Z,13.52
2023-04-15T03:03:58.761Z,13.00
2023-04-15T03:07:03.539Z,10.95
2023-04-15T03:10:07.755Z,13.70
2023-04-15T03:13:11.750Z,12.63
2023-04-15T03:16:18.189Z,10.05
2023-04-15T03:19:23.677Z,16.58
2023-04-15T03:22:28.119Z,12.43
2023-04-15T03:25:33.479Z,14.15
2023-04-15T03:28:38.190Z,17.55
2023-04-15T03:31:57.083Z,14.35
2023-04-15T03:35:02.600Z,15.00
2023-04-15T03:38:06.496Z,13.68
2023-04-15T03:41:10.713Z,16.58
2023-04-15T03:44:15.658Z,17.80
2023-04-15T03:47:28.276Z,15.88
2023-04-15T03:50:36.052Z,13.98
2023-04-15T03:53:40.070Z,16.42
2023-04-15T03:56:44.334Z,16.73
2023-04-15T03:59:48.813Z,16.17
2023-04-15T04:02:52.556Z,18.80
2023-04-15T04:05:58.018Z,16.40
2023-04-15T04:09:02.360Z,15.88
2023-04-15T04:12:09.088Z,14.75
2023-04-15T04:15:14.719Z,15.85
2023-04-15T04:18:18.542Z,16.60
2023-04-15T04:21:23.979Z,14.23
2023-04-15T04:24:28.531Z,15.98
2023-04-15T04:27:32.525Z,18.15
2023-04-15T04:30:37.976Z,15.75
2023-04-15T04:33:42.174Z,13.98
2023-04-15T04:36:47.407Z,18.10
2023-04-15T04:39:51.431Z,20.17
2023-04-15T04:42:55.944Z,17.73
2023-04-15T04:46:01.618Z,15.63
2023-04-15T04:49:09.001Z,18.00
2023-04-15T04:52:15.337Z,19.10
2023-04-15T04:55:20.734Z,16.52
2023-04-15T04:58:25.281Z,20.60
2023-04-15T05:01:29.358Z,24.67
2023-04-15T05:04:47.494Z,19.45
2023-04-15T05:07:53.537Z,19.50
2023-04-15T05:10:57.107Z,24.23
2023-04-15T05:14:06.098Z,21.85
2023-04-15T05:17:10.008Z,24.88
2023-04-15T05:20:15.231Z,17.80
2023-04-15T05:23:21.961Z,19.95
2023-04-15T05:26:27.834Z,22.98
2023-04-15T05:29:45.610Z,21.15
2023-04-15T05:32:52.028Z,23.55
2023-04-15T05:35:56.248Z,25.25
2023-04-15T05:39:02.282Z,21.90
2023-04-15T05:42:06.996Z,22.05
2023-04-15T05:45:11.116Z,20.92
2023-04-15T05:48:14.763Z,21.75
2023-04-15T05:51:18.496Z,22.48
2023-04-15T05:54:24.966Z,19.92
2023-04-15T05:57:29.504Z,23.00
2023-04-15T06:00:33.935Z,20.33
2023-04-15T06:03:38.857Z,20.42
2023-04-15T06:06:44.224Z,23.58
2023-04-15T06:09:51.121Z,27.20
2023-04-15T06:12:54.931Z,28.70
2023-04-15T06:15:59.755Z,25.40
2023-04-15T06:19:03.499Z,21.38
2023-04-15T06:22:11.239Z,21.05
2023-04-15T06:25:19.701Z,24.88
2023-04-15T06:28:23.985Z,22.02
2023-04-15T06:31:27.767Z,31.08
2023-04-15T06:34:31.980Z,27.75
2023-04-15T06:37:36.433Z,28.10
2023-04-15T06:40:43.695Z,28.27
2023-04-15T06:43:47.324Z,34.22
2023-04-15T06:46:54.515Z,28.17
2023-04-15T06:49:59.426Z,26.48
2023-04-15T06:53:03.598Z,28.90
2023-04-15T06:56:10.448Z,26.17
2023-04-15T06:59:14.180Z,29.58
2023-04-15T07:02:20.776Z,30.05
2023-04-15T07:05:26.615Z,36.30
2023-04-15T07:08:30.526Z,31.98
2023-04-15T07:11:36.678Z,35.80
2023-04-15T07:14:41.745Z,30.73
2023-04-15T07:17:45.275Z,30.48
2023-04-15T07:20:49.949Z,28.75
2023-04-15T07:23:55.397Z,33.72
2023-04-15T07:27:02.105Z,30.38
2023-04-15T07:30:06.325Z,32.13
2023-04-15T07:33:09.954Z,34.83
2023-04-15T07:36:14.059Z,32.80
2023-04-15T07:39:17.969Z,36.22
2023-04-15T07:42:23.379Z,35.33
2023-04-15T07:45:27.556Z,34.28
2023-04-15T07:48:31.459Z,33.03
2023-04-15T07:51:35.663Z,33.25
2023-04-15T07:54:40.053Z,43.45
2023-04-15T07:57:44.813Z,29.95
2023-04-15T08:00:49.339Z,32.85
2023-04-15T08:03:53.326Z,36.15
2023-04-15T08:06:57.925Z,32.15
2023-04-15T08:10:01.726Z,32.60
2023-04-15T08:13:07.012Z,34.95
2023-04-15T08:16:19.884Z,31.90
2023-04-15T08:19:24.188Z,33.05
2023-04-15T08:22:27.821Z,32.10
2023-04-15T08:25:31.683Z,36.97
2023-04-15T08:28:37.155Z,33.63
2023-04-15T08:31:41.007Z,32.80
2023-04-15T08:34:44.640Z,29.92
2023-04-15T08:37:51.287Z,34.42
2023-04-15T08:40:55.022Z,31.77
2023-04-15T08:44:01.885Z,32.45
2023-04-15T08:47:06.056Z,28.98
2023-04-15T08:50:15.460Z,32.75
2023-04-15T08:53:19.170Z,25.48
2023-04-15T08:56:26.299Z,30.63
2023-04-15T08:59:32.298Z,33.45
2023-04-15T09:02:36.915Z,28.90
2023-04-15T09:05:40.658Z,32.58
2023-04-15T09:08:44.955Z,33.03
2023-04-15T09:11:50.175Z,36.25
2023-04-15T09:14:55.567Z,40.88
2023-04-15T09:17:59.341Z,30.10
2023-04-15T09:21:06.984Z,27.85
2023-04-15T09:24:13.850Z,36.17
2023-04-15T09:27:19.783Z,30.83
2023-04-15T09:30:25.001Z,29.75
2023-04-15T09:33:29.699Z,35.08
2023-04-15T09:36:38.882Z,29.80
2023-04-15T09:39:51.110Z,31.55
2023-04-15T09:42:57.803Z,30.27
2023-04-15T09:46:03.095Z,31.98
2023-04-15T09:49:10.545Z,24.67
2023-04-15T09:52:17.425Z,32.45
2023-04-15T09:55:21.842Z,27.15
2023-04-15T09:58:26.554Z,25.98
2023-04-15T10:01:31.815Z,27.17
2023-04-15T10:04:38.452Z,29.55
2023-04-15T10:07:43.037Z,23.63
2023-04-15T10:10:49.274Z,29.75
2023-04-15T10:13:53.329Z,27.70
2023-04-15T10:16:59.116Z,22.10
2023-04-15T10:20:07.610Z,25.17
2023-04-15T10:23:12.896Z,23.83
2023-04-15T10:26:17.707Z,22.38
2023-04-15T10:29:26.415Z,28.95
2023-04-15T10:32:31.912Z,25.90
2023-04-15T10:35:38.086Z,23.05
2023-04-15T10:38:43.324Z,25.63
2023-04-15T10:41:46.854Z,18.98
2023-04-15T10:44:51.537Z,25.40
2023-04-15T10:48:02.213Z,24.23
2023-04-15T10:51:06.927Z,22.17
2023-04-15T10:54:15.054Z,20.13
2023-04-15T10:57:25.131Z,21.90
2023-04-15T11:00:30.358Z,19.13
2023-04-15T11:03:40.448Z,22.85
2023-04-15T11:06:47.787Z,23.13
2023-04-15T11:09:51.435Z,23.52
2023-04-15T11:12:55.822Z,21.17
2023-04-15T11:16:06.139Z,19.48
2023-04-15T11:19:13.599Z,17.58
2023-04-15T11:22:17.957Z,21.40
2023-04-15T11:25:26.192Z,18.30
2023-04-15T11:28:33.496Z,17.67
2023-04-15T11:31:39.397Z,17.60
2023-04-15T11:34:48.964Z,19.38
2023-04-15T11:37:53.688Z,20.85
2023-04-15T11:40:57.432Z,20.80
2023-04-15T11:44:00.962Z,13.38
2023-04-15T11:47:04.842Z,15.75
2023-04-15T11:50:21.200Z,15.10
2023-04-15T11:53:38.741Z,16.25
2023-04-15T11:56:42.590Z,17.73
2023-04-15T11:59:46.799Z,15.13
2023-04-15T12:02:51.914Z,15.60
2023-04-15T12:06:12.902Z,16.88
2023-04-15T12:09:17.701Z,14.50
2023-04-15T12:12:21.196Z,12.73
2023-04-15T12:15:24.797Z,13.70
2023-04-15T12:18:28.488Z,14.15
2023-04-15T12:21:40.244Z,13.07
2023-04-15T12:24:46.915Z,14.73
2023-04-15T12:27:56.039Z,13.52
2023-04-15T12:30:59.689Z,10.15
2023-04-15T12:34:04.805Z,13.23
2023-04-15T12:37:11.005Z,15.23
2023-04-15T12:40:19.251Z,16.38
2023-04-15T12:43:23.709Z,13.82
2023-04-15T12:46:28.587Z,13.43
2023-04-15T12:49:35.835Z,19.40
2023-04-15T12:52:52.123Z,16.38
2023-04-15T12:55:56.567Z,17.08
2023-04-15T12:59:05.313Z,12.05
2023-04-15T13:02:09.010Z,13.90
2023-04-15T13:05:14.794Z,15.55
2023-04-15T13:08:20.074Z,13.93
2023-04-15T13:11:24.182Z,17.23
2023-04-15T13:14:28.352Z,14.57
2023-04-15T13:17:32.171Z,16.27
2023-04-15T13:20:35.939Z,13.68
2023-04-15T13:23:43.732Z,17.73
2023-04-15T13:26:50.446Z,14.45
2023-04-15T13:29:55.342Z,15.13
2023-04-15T13:32:58.977Z,14.00
2023-04-15T13:36:04.859Z,12.25
2023-04-15T13:39:09.781Z,15.32
2023-04-15T13:42:13.481Z,14.50
2023-04-15T13:45:17.582Z,17.88
2023-04-15T13:48:22.905Z,13.75
2023-04-15T13:51:27.036Z,13.73
2023-04-15T13:54:37.406Z,16.80
2023-04-15T13:57:42.259Z,18.27
2023-04-15T14:00:47.023Z,15.00
2023-04-15T14:03:51.095Z,12.93
2023-04-15T14:06:56.375Z,17.92
2023-04-15T14:10:02.289Z,15.13
2023-04-15T14:13:06.247Z,13.10
2023-04-15T14:16:10.409Z,14.73
2023-04-15T14:19:13.985Z,15.32
2023-04-15T14:22:19.014Z,16.17
2023-04-15T14:25:33.400Z,14.18
2023-04-15T14:28:39.479Z,18.48
2023-04-15T14:31:44.791Z,16.48
2023-04-15T14:35:14.560Z,16.67
2023-04-15T14:38:19.604Z,13.00
2023-04-15T14:41:24.534Z,15.63
2023-04-15T14:44:28.315Z,11.80
2023-04-15T14:47:33.013Z,15.23
2023-04-15T14:50:36.523Z,14.25
2023-04-15T14:53:40.534Z,12.88
2023-04-15T14:56:47.111Z,16.38
2023-04-15T14:59:56.227Z,16.52
2023-04-15T15:03:00.703Z,11.15
2023-04-15T15:06:04.582Z,15.35
2023-04-15T15:09:07.988Z,14.98
2023-04-15T15:12:13.665Z,15.00
2023-04-15T15:15:28.564Z,15.35
2023-04-15T15:18:32.461Z,13.73
2023-04-15T15:21:36.217Z,12.65
2023-04-15T15:24:39.498Z,13.65
2023-04-15T15:27:46.307Z,15.48
2023-04-15T15:30:50.194Z,17.33
2023-04-15T15:33:56.310Z,18.75
2023-04-15T15:37:02.347Z,12.82
2023-04-15T15:40:07.443Z,16.98
2023-04-15T15:43:12.440Z,16.85
2023-04-15T15:46:16.399Z,11.02
2023-04-15T15:49:20.363Z,12.55
2023-04-15T15:52:24.058Z,14.75
2023-04-15T15:55:28.389Z,13.93
2023-04-15T15:58:36.263Z,14.35
2023-04-15T16:01:40.020Z,13.50
2023-04-15T16:04:47.029Z,17.27
2023-04-15T16:07:50.993Z,14.57
2023-04-15T16:10:54.350Z,13.15
2023-04-15T16:13:59.185Z,14.07
2023-04-15T16:17:02.649Z,16.83
2023-04-15T16:20:07.139Z,18.55
2023-04-15T16:23:14.583Z,16.60
2023-04-15T16:26:18.425Z,15.13
2023-04-15T16:29:23.485Z,18.45
2023-04-15T16:32:27.312Z,21.08
2023-04-15T16:35:32.796Z,20.75
2023-04-15T16:38:39.031Z,17.92
2023-04-15T16:41:44.323Z,18.65
2023-04-15T16:44:49.602Z,16.17
2023-04-15T16:47:53.222Z,18.85
2023-04-15T16:50:57.128Z,17.25
2023-04-15T16:54:00.920Z,18.67
2023-04-15T16:57:04.599Z,17.73
2023-04-15T17:00:11.867Z,19.58
2023-04-15T17:03:16.463Z,17.60
2023-04-15T17:06:20.279Z,14.02
2023-04-15T17:09:23.926Z,17.50
2023-04-15T17:12:29.191Z,15.45
2023-04-15T17:15:34.458Z,16.42
2023-04-15T17:18:38.086Z,16.52
2023-04-15T17:21:42.016Z,14.35
2023-04-15T17:24:47.829Z,15.27
2023-04-15T17:27:51.620Z,17.40
2023-04-15T17:30:56.763Z,18.73
2023-04-15T17:34:09.119Z,16.67
2023-04-15T17:37:13.605Z,22.42
2023-04-15T17:40:18.451Z,16.95
2023-04-15T17:43:22.152Z,20.95
2023-04-15T17:46:27.557Z,19.17
2023-04-15T17:49:34.326Z,16.42
2023-04-15T17:52:37.571Z,23.77
2023-04-15T17:55:43.804Z,18.90
2023-04-15T17:58:47.426Z,16.40
2023-04-15T18:01:52.426Z,17.08
2023-04-15T18:04:56.198Z,16.90
2023-04-15T18:08:00.226Z,26.38
2023-04-15T18:11:04.844Z,15.63
2023-04-15T18:14:08.722Z,17.98
2023-04-15T18:17:14.809Z,16.00
2023-04-15T18:20:19.535Z,15.18
2023-04-15T18:23:22.815Z,16.95
2023-04-15T18:26:27.204Z,17.15
2023-04-15T18:29:31.370Z,19.55
2023-04-15T18:32:36.343Z,22.75
2023-04-15T18:35:42.883Z,21.35
2023-04-15T18:38:47.008Z,19.45
2023-04-15T18:41:51.426Z,20.13
2023-04-15T18:44:55.790Z,19.90
2023-04-15T18:48:02.021Z,18.30
2023-04-15T18:51:06.135Z,18.48
2023-04-15T18:54:09.973Z,17.90
2023-04-15T18:57:13.647Z,17.75
2023-04-15T19:00:22.875Z,23.92
2023-04-15T19:03:30.261Z,24.85
2023-04-15T19:06:35.417Z,20.95
2023-04-15T19:09:39.144Z,18.50
2023-04-15T19:12:45.958Z,24.17
2023-04-15T19:15:52.432Z,17.58
2023-04-15T19:18:57.242Z,16.80
2023-04-15T19:22:03.245Z,15.95
2023-04-15T19:25:07.677Z,18.58
2023-04-15T19:28:11.571Z,25.23
2023-04-15T19:31:16.546Z,19.98
2023-04-15T19:34:22.146Z,21.13
2023-04-15T19:37:27.709Z,20.73
2023-04-15T19:40:31.485Z,16.08
2023-04-15T19:43:35.269Z,21.45
2023-04-15T19:46:39.918Z,19.02
2023-04-15T19:49:44.898Z,19.70
2023-04-15T19:52:49.213Z,18.98
2023-04-15T19:55:52.923Z,15.85
2023-04-15T19:58:56.274Z,17.27
2023-04-15T20:02:00.773Z,28.95
2023-04-15T20:05:09.709Z,15.30
2023-04-15T20:08:13.665Z,23.40
2023-04-15T20:11:20.094Z,20.13
2023-04-15T20:14:26.762Z,16.60
2023-04-15T20:17:34.022Z,19.65
2023-04-15T20:20:43.930Z,22.05
2023-04-15T20:23:47.909Z,24.73
2023-04-15T20:26:52.666Z,24.27
2023-04-15T20:29:56.671Z,24.38
2023-04-15T20:33:00.449Z,17.20
2023-04-15T20:36:05.773Z,25.27
2023-04-15T20:39:11.694Z,21.85
2023-04-15T20:42:17.973Z,27.17
2023-04-15T20:45:22.606Z,23.08
2023-04-15T20:48:27.336Z,25.17
2023-04-15T20:51:37.448Z,24.15
2023-04-15T20:54:41.706Z,21.08
2023-04-15T20:57:48.640Z,26.10
2023-04-15T21:00:55.253Z,22.33
2023-04-15T21:03:59.216Z,23.35
2023-04-15T21:07:05.432Z,22.88
2023-04-15T21:10:09.229Z,28.60
2023-04-15T21:13:17.512Z,18.75
2023-04-15T21:16:22.261Z,23.15
2023-04-15T21:19:25.920Z,21.77
2023-04-15T21:22:31.160Z,23.92
2023-04-15T21:25:35.694Z,23.88
2023-04-15T21:28:39.790Z,20.75
2023-04-15T21:31:43.751Z,23.35
2023-04-15T21:34:48.661Z,22.25
2023-04-15T21:37:53.806Z,19.58
2023-04-15T21:40:58.174Z,23.40
2023-04-15T21:44:02.261Z,22.45
2023-04-15T21:47:05.613Z,27.25
2023-04-15T21:50:12.108Z,19.85
2023-04-15T21:53:22.515Z,20.38
2023-04-15T21:56:26.359Z,23.38
2023-04-15T21:59:30.268Z,26.05
2023-04-15T22:02:37.848Z,23.08
2023-04-15T22:05:41.887Z,19.70
2023-04-15T22:08:56.172Z,27.25
2023-04-15T22:12:00.979Z,20.65
2023-04-15T22:15:05.266Z,21.60
2023-04-15T22:18:08.848Z,20.15
2023-04-15T22:21:12.456Z,21.00
2023-04-15T22:24:33.891Z,23.45
2023-04-15T22:27:43.313Z,25.70
2023-04-15T22:30:47.653Z,20.25
2023-04-15T22:33:52.942Z,30.92
2023-04-15T22:36:56.417Z,19.60
2023-04-15T22:40:01.709Z,18.92
2023-04-15T22:43:05.974Z,23.98
2023-04-15T22:46:10.762Z,21.58
2023-04-15T22:49:14.086Z,26.42
2023-04-15T22:52:29.258Z,24.48
2023-04-15T22:55:37.007Z,24.35
2023-04-15T22:58:41.109Z,19.80
2023-04-15T23:01:44.698Z,23.98
2023-04-15T23:04:49.776Z,28.23
2023-04-15T23:07:53.875Z,30.58
2023-04-15T23:11:01.514Z,19.20
2023-04-15T23:14:05.429Z,18.92
2023-04-15T23:17:08.975Z,22.95
2023-04-15T23:20:13.270Z,22.58
2023-04-15T23:23:17.347Z,17.02
2023-04-15T23:26:27.610Z,28.73
2023-04-15T23:29:31.124Z,24.88
2023-04-15T23:32:35.400Z,23.48
2023-04-15T23:35:39.387Z,20.80
2023-04-15T23:38:44.815Z,23.50
2023-04-15T23:41:53.775Z,26.80
2023-04-15T23:44:58.390Z,20.92
2023-04-15T23:48:02.311Z,23.15
2023-04-15T23:51:05.958Z,17.60
2023-04-15T23:54:10.482Z,21.30
2023-04-15T23:57:15.568Z,23.17
